Monson, Maine
Current Conditions -  °F | °C
As of 7:53 AM on Sunday 21 Dec 2014 (Local Time) from KMLT Reporting Station
Overcast Overcast  
Wind Chill: 22°   Ceiling: 1500
Heat Index: 22°   Visibility: 10mi
Dew Point: 18°   Wind: 0mph
Humidity: 85%   Direction: NA
Pressure: 30.37"   Gusts: NA
Location:  45.29°N, 69.5°W
Report Text: KMLT 211253Z AUTO 00000KT 10SM BKN015 OVC027 M06/M08 A3037 RMK AO2 SLP298 T10561078
Loading
Personal Weather Stations






























Interactive Weather Map New forecast layout! Learn more

10-Day Weather Forecast

Advertisements
Track Severe Weather on mobile